sensor_id;sensor_type;location;lat;lon;timestamp;pressure;altitude;pressure_sealevel;temperature;humidity
60319;BME280;46163;52.306;5.634;2024-01-30T00:00:37;102460.81;;;6.70;100.00
60319;BME280;46163;52.306;5.634;2024-01-30T00:03:03;102466.28;;;6.78;100.00
60319;BME280;46163;52.306;5.634;2024-01-30T00:05:29;102474.47;;;6.85;100.00
60319;BME280;46163;52.306;5.634;2024-01-30T00:07:54;102467.09;;;6.69;100.00
60319;BME280;46163;52.306;5.634;2024-01-30T00:10:19;102471.25;;;6.62;100.00
60319;BME280;46163;52.306;5.634;2024-01-30T00:12:45;102460.22;;;6.57;100.00
60319;BME280;46163;52.306;5.634;2024-01-30T00:15:11;102468.47;;;6.64;100.00
60319;BME280;46163;52.306;5.634;2024-01-30T00:17:37;102449.31;;;6.41;100.00
60319;BME280;46163;52.306;5.634;2024-01-30T00:20:03;102467.94;;;6.70;100.00
60319;BME280;46163;52.306;5.634;2024-01-30T00:22:31;102472.31;;;6.60;100.00
60319;BME280;46163;52.306;5.634;2024-01-30T00:24:57;102473.72;;;6.54;100.00
60319;BME280;46163;52.306;5.634;2024-01-30T00:27:22;102469.09;;;6.46;100.00
60319;BME280;46163;52.306;5.634;2024-01-30T00:29:47;102468.78;;;6.40;100.00
60319;BME280;46163;52.306;5.634;2024-01-30T00:32:13;102463.09;;;6.35;100.00
60319;BME280;46163;52.306;5.634;2024-01-30T00:34:38;102445.78;;;6.31;100.00
60319;BME280;46163;52.306;5.634;2024-01-30T00:37:04;102457.00;;;6.44;100.00
60319;BME280;46163;52.306;5.634;2024-01-30T00:39:29;102476.72;;;6.40;100.00
60319;BME280;46163;52.306;5.634;2024-01-30T00:41:55;102464.66;;;6.47;100.00
60319;BME280;46163;52.306;5.634;2024-01-30T00:44:20;102477.31;;;6.43;100.00
60319;BME280;46163;52.306;5.634;2024-01-30T00:46:46;102475.22;;;6.47;100.00
60319;BME280;46163;52.306;5.634;2024-01-30T00:49:11;102466.41;;;6.37;100.00
60319;BME280;46163;52.306;5.634;2024-01-30T00:51:36;102463.88;;;6.26;100.00
60319;BME280;46163;52.306;5.634;2024-01-30T00:54:02;102465.28;;;6.30;100.00
60319;BME280;46163;52.306;5.634;2024-01-30T00:56:28;102457.44;;;6.18;100.00
60319;BME280;46163;52.306;5.634;2024-01-30T00:58:54;102459.16;;;6.29;100.00
60319;BME280;46163;52.306;5.634;2024-01-30T01:01:19;102431.38;;;6.14;100.00
60319;BME280;46163;52.306;5.634;2024-01-30T01:03:45;102455.22;;;6.23;100.00
60319;BME280;46163;52.306;5.634;2024-01-30T01:06:10;102451.22;;;6.29;100.00
60319;BME280;46163;52.306;5.634;2024-01-30T01:08:36;102459.97;;;6.30;100.00
60319;BME280;46163;52.306;5.634;2024-01-30T01:11:01;102445.38;;;6.26;100.00
60319;BME280;46163;52.306;5.634;2024-01-30T01:13:26;102424.03;;;6.17;100.00
60319;BME280;46163;52.306;5.634;2024-01-30T01:15:52;102456.78;;;6.26;100.00
60319;BME280;46163;52.306;5.634;2024-01-30T01:18:17;102438.09;;;6.68;100.00
60319;BME280;46163;52.306;5.634;2024-01-30T01:20:43;102433.28;;;6.42;100.00
60319;BME280;46163;52.306;5.634;2024-01-30T01:23:08;102442.00;;;6.64;100.00
60319;BME280;46163;52.306;5.634;2024-01-30T01:25:34;102430.56;;;6.54;100.00
60319;BME280;46163;52.306;5.634;2024-01-30T01:27:59;102424.97;;;6.47;100.00
60319;BME280;46163;52.306;5.634;2024-01-30T01:30:26;102438.66;;;6.62;100.00
60319;BME280;46163;52.306;5.634;2024-01-30T01:32:53;102440.16;;;6.45;100.00
60319;BME280;46163;52.306;5.634;2024-01-30T01:35:23;102439.50;;;6.62;100.00
60319;BME280;46163;52.306;5.634;2024-01-30T01:37:52;102424.34;;;6.34;100.00
60319;BME280;46163;52.306;5.634;2024-01-30T01:40:23;102433.28;;;6.42;100.00
60319;BME280;46163;52.306;5.634;2024-01-30T01:42:50;102427.16;;;6.42;100.00
60319;BME280;46163;52.306;5.634;2024-01-30T01:45:16;102431.41;;;6.54;100.00
60319;BME280;46163;52.306;5.634;2024-01-30T01:47:41;102428.00;;;6.42;100.00
60319;BME280;46163;52.306;5.634;2024-01-30T01:50:08;102423.84;;;6.49;100.00
60319;BME280;46163;52.306;5.634;2024-01-30T01:52:33;102428.91;;;6.62;100.00
60319;BME280;46163;52.306;5.634;2024-01-30T01:54:59;102427.63;;;6.57;100.00
60319;BME280;46163;52.306;5.634;2024-01-30T01:57:25;102422.78;;;6.62;100.00
60319;BME280;46163;52.306;5.634;2024-01-30T01:59:50;102428.16;;;6.41;100.00
60319;BME280;46163;52.306;5.634;2024-01-30T02:02:17;102420.47;;;6.28;100.00
60319;BME280;46163;52.306;5.634;2024-01-30T02:04:44;102427.78;;;6.55;100.00
60319;BME280;46163;52.306;5.634;2024-01-30T02:07:10;102412.78;;;6.25;100.00
60319;BME280;46163;52.306;5.634;2024-01-30T02:09:36;102436.72;;;6.23;100.00
60319;BME280;46163;52.306;5.634;2024-01-30T02:12:01;102429.44;;;6.16;100.00
60319;BME280;46163;52.306;5.634;2024-01-30T02:14:26;102414.56;;;6.15;100.00
60319;BME280;46163;52.306;5.634;2024-01-30T02:16:52;102436.06;;;6.31;100.00
60319;BME280;46163;52.306;5.634;2024-01-30T02:19:17;102430.09;;;6.39;100.00
60319;BME280;46163;52.306;5.634;2024-01-30T02:21:44;102417.19;;;6.55;100.00
60319;BME280;46163;52.306;5.634;2024-01-30T02:24:10;102419.06;;;6.34;100.00
60319;BME280;46163;52.306;5.634;2024-01-30T02:26:35;102413.25;;;6.40;100.00
60319;BME280;46163;52.306;5.634;2024-01-30T02:29:01;102409.06;;;6.28;100.00
60319;BME280;46163;52.306;5.634;2024-01-30T02:31:26;102404.63;;;6.38;100.00
60319;BME280;46163;52.306;5.634;2024-01-30T02:33:51;102415.41;;;6.65;100.00
60319;BME280;46163;52.306;5.634;2024-01-30T02:36:17;102416.47;;;6.43;100.00
60319;BME280;46163;52.306;5.634;2024-01-30T02:38:42;102408.50;;;6.34;100.00
60319;BME280;46163;52.306;5.634;2024-01-30T02:41:08;102419.97;;;6.54;100.00
60319;BME280;46163;52.306;5.634;2024-01-30T02:43:33;102410.22;;;6.44;100.00
60319;BME280;46163;52.306;5.634;2024-01-30T02:45:59;102406.28;;;6.39;100.00
60319;BME280;46163;52.306;5.634;2024-01-30T02:48:26;102403.31;;;6.72;100.00
60319;BME280;46163;52.306;5.634;2024-01-30T02:50:51;102409.41;;;6.63;100.00
60319;BME280;46163;52.306;5.634;2024-01-30T02:53:16;102420.25;;;6.60;100.00
60319;BME280;46163;52.306;5.634;2024-01-30T02:55:42;102409.41;;;6.63;100.00
60319;BME280;46163;52.306;5.634;2024-01-30T02:58:07;102407.63;;;6.64;100.00
60319;BME280;46163;52.306;5.634;2024-01-30T03:00:33;102398.69;;;6.55;100.00
60319;BME280;46163;52.306;5.634;2024-01-30T03:02:59;102398.34;;;6.39;100.00
60319;BME280;46163;52.306;5.634;2024-01-30T03:05:25;102397.00;;;6.54;100.00
60319;BME280;46163;52.306;5.634;2024-01-30T03:07:50;102394.91;;;6.48;100.00
60319;BME280;46163;52.306;5.634;2024-01-30T03:10:16;102381.28;;;6.62;100.00
60319;BME280;46163;52.306;5.634;2024-01-30T03:12:41;102373.50;;;6.70;100.00
60319;BME280;46163;52.306;5.634;2024-01-30T03:15:07;102362.78;;;6.91;100.00
60319;BME280;46163;52.306;5.634;2024-01-30T03:17:32;102358.47;;;6.80;100.00
60319;BME280;46163;52.306;5.634;2024-01-30T03:19:58;102382.13;;;6.72;100.00
60319;BME280;46163;52.306;5.634;2024-01-30T03:22:23;102382.28;;;6.90;100.00
60319;BME280;46163;52.306;5.634;2024-01-30T03:24:49;102370.44;;;6.85;100.00
60319;BME280;46163;52.306;5.634;2024-01-30T03:27:14;102355.94;;;6.60;100.00
60319;BME280;46163;52.306;5.634;2024-01-30T03:29:39;102374.34;;;6.80;100.00
60319;BME280;46163;52.306;5.634;2024-01-30T03:32:05;102375.31;;;6.79;100.00
60319;BME280;46163;52.306;5.634;2024-01-30T03:34:30;102375.19;;;6.91;100.00
60319;BME280;46163;52.306;5.634;2024-01-30T03:36:56;102344.13;;;6.73;100.00
60319;BME280;46163;52.306;5.634;2024-01-30T03:39:21;102354.56;;;6.65;100.00
60319;BME280;46163;52.306;5.634;2024-01-30T03:41:46;102369.31;;;6.77;100.00
60319;BME280;46163;52.306;5.634;2024-01-30T03:44:12;102362.78;;;6.82;100.00
60319;BME280;46163;52.306;5.634;2024-01-30T03:46:37;102353.19;;;6.80;100.00
60319;BME280;46163;52.306;5.634;2024-01-30T03:49:03;102360.13;;;6.91;100.00
60319;BME280;46163;52.306;5.634;2024-01-30T03:51:28;102357.78;;;6.78;100.00
60319;BME280;46163;52.306;5.634;2024-01-30T03:53:54;102356.81;;;6.89;100.00
60319;BME280;46163;52.306;5.634;2024-01-30T03:56:19;102344.81;;;6.75;100.00
60319;BME280;46163;52.306;5.634;2024-01-30T03:58:44;102344.56;;;6.88;100.00
60319;BME280;46163;52.306;5.634;2024-01-30T04:01:14;102357.50;;;7.01;100.00
60319;BME280;46163;52.306;5.634;2024-01-30T04:03:40;102341.59;;;7.01;100.00
60319;BME280;46163;52.306;5.634;2024-01-30T04:06:06;102346.22;;;6.99;100.00
60319;BME280;46163;52.306;5.634;2024-01-30T04:08:31;102337.84;;;6.94;100.00
60319;BME280;46163;52.306;5.634;2024-01-30T04:10:57;102323.91;;;7.11;100.00
60319;BME280;46163;52.306;5.634;2024-01-30T04:13:23;102336.06;;;7.04;100.00
60319;BME280;46163;52.306;5.634;2024-01-30T04:15:48;102337.97;;;7.12;100.00
60319;BME280;46163;52.306;5.634;2024-01-30T04:18:13;102338.13;;;7.10;100.00
60319;BME280;46163;52.306;5.634;2024-01-30T04:20:39;102323.91;;;7.11;100.00
60319;BME280;46163;52.306;5.634;2024-01-30T04:23:04;102336.31;;;7.11;100.00
60319;BME280;46163;52.306;5.634;2024-01-30T04:25:30;102343.97;;;7.14;100.00
60319;BME280;46163;52.306;5.634;2024-01-30T04:27:55;102337.97;;;7.21;100.00
60319;BME280;46163;52.306;5.634;2024-01-30T04:30:21;102347.47;;;7.14;100.00
60319;BME280;46163;52.306;5.634;2024-01-30T04:32:46;102355.41;;;7.14;100.00
60319;BME280;46163;52.306;5.634;2024-01-30T04:35:11;102345.66;;;7.05;100.00
60319;BME280;46163;52.306;5.634;2024-01-30T04:37:37;102344.25;;;7.01;100.00
60319;BME280;46163;52.306;5.634;2024-01-30T04:40:03;102335.34;;;7.02;100.00
60319;BME280;46163;52.306;5.634;2024-01-30T04:42:28;102348.16;;;7.06;100.00
60319;BME280;46163;52.306;5.634;2024-01-30T04:44:53;102337.41;;;7.18;100.00
60319;BME280;46163;52.306;5.634;2024-01-30T04:47:19;102331.16;;;7.09;100.00
60319;BME280;46163;52.306;5.634;2024-01-30T04:49:44;102303.69;;;7.10;100.00
60319;BME280;46163;52.306;5.634;2024-01-30T04:52:10;102313.72;;;7.63;98.73
60319;BME280;46163;52.306;5.634;2024-01-30T04:54:35;102324.06;;;7.66;97.43
60319;BME280;46163;52.306;5.634;2024-01-30T04:57:02;102304.53;;;7.67;97.05
60319;BME280;46163;52.306;5.634;2024-01-30T04:59:28;102316.22;;;7.74;96.41
60319;BME280;46163;52.306;5.634;2024-01-30T05:01:53;102310.97;;;7.55;96.35
60319;BME280;46163;52.306;5.634;2024-01-30T05:04:18;102305.66;;;7.55;96.88
60319;BME280;46163;52.306;5.634;2024-01-30T05:06:44;102306.25;;;7.49;96.55
60319;BME280;46163;52.306;5.634;2024-01-30T05:09:09;102316.31;;;7.35;95.76
60319;BME280;46163;52.306;5.634;2024-01-30T05:11:39;102317.31;;;7.34;97.56
60319;BME280;46163;52.306;5.634;2024-01-30T05:14:05;102323.59;;;7.33;96.15
60319;BME280;46163;52.306;5.634;2024-01-30T05:16:31;102326.25;;;7.33;97.37
60319;BME280;46163;52.306;5.634;2024-01-30T05:18:57;102323.28;;;7.36;97.87
60319;BME280;46163;52.306;5.634;2024-01-30T05:21:23;102327.78;;;7.26;96.96
60319;BME280;46163;52.306;5.634;2024-01-30T05:23:48;102334.47;;;7.30;96.81
60319;BME280;46163;52.306;5.634;2024-01-30T05:26:14;102342.00;;;7.25;98.70
60319;BME280;46163;52.306;5.634;2024-01-30T05:28:39;102329.06;;;7.03;97.48
60319;BME280;46163;52.306;5.634;2024-01-30T05:31:04;102330.84;;;7.12;95.95
60319;BME280;46163;52.306;5.634;2024-01-30T05:33:30;102318.63;;;7.01;96.40
60319;BME280;46163;52.306;5.634;2024-01-30T05:35:55;102329.34;;;7.00;97.26
60319;BME280;46163;52.306;5.634;2024-01-30T05:38:21;102317.38;;;6.76;96.82
60319;BME280;46163;52.306;5.634;2024-01-30T05:40:46;102332.84;;;6.62;95.09
60319;BME280;46163;52.306;5.634;2024-01-30T05:43:12;102323.16;;;6.22;95.81
60319;BME280;46163;52.306;5.634;2024-01-30T05:45:37;102319.63;;;5.92;88.68
60319;BME280;46163;52.306;5.634;2024-01-30T05:48:03;102296.59;;;5.83;100.00
60319;BME280;46163;52.306;5.634;2024-01-30T05:50:29;102319.69;;;6.21;100.00
60319;BME280;46163;52.306;5.634;2024-01-30T05:52:54;102312.63;;;7.09;100.00
60319;BME280;46163;52.306;5.634;2024-01-30T05:55:20;102311.28;;;7.42;100.00
60319;BME280;46163;52.306;5.634;2024-01-30T05:57:45;102306.25;;;7.49;99.53
60319;BME280;46163;52.306;5.634;2024-01-30T06:00:11;102311.53;;;7.58;99.57
60319;BME280;46163;52.306;5.634;2024-01-30T06:02:36;102316.69;;;7.60;98.51
60319;BME280;46163;52.306;5.634;2024-01-30T06:05:02;102316.97;;;7.57;98.63
60319;BME280;46163;52.306;5.634;2024-01-30T06:07:28;102318.78;;;7.56;99.46
60319;BME280;46163;52.306;5.634;2024-01-30T06:09:53;102316.38;;;7.63;99.65
60319;BME280;46163;52.306;5.634;2024-01-30T06:12:19;102307.34;;;7.56;99.14
60319;BME280;46163;52.306;5.634;2024-01-30T06:14:44;102310.97;;;7.55;99.66
60319;BME280;46163;52.306;5.634;2024-01-30T06:17:10;102305.28;;;7.50;100.00
60319;BME280;46163;52.306;5.634;2024-01-30T06:19:37;102307.50;;;7.45;100.00
60319;BME280;46163;52.306;5.634;2024-01-30T06:22:04;102333.16;;;7.44;100.00
60319;BME280;46163;52.306;5.634;2024-01-30T06:24:29;102314.09;;;7.41;100.00
60319;BME280;46163;52.306;5.634;2024-01-30T06:26:55;102316.19;;;7.37;100.00
60319;BME280;46163;52.306;5.634;2024-01-30T06:29:20;102317.00;;;7.37;100.00
60319;BME280;46163;52.306;5.634;2024-01-30T06:31:46;102325.66;;;7.40;100.00
60319;BME280;46163;52.306;5.634;2024-01-30T06:34:11;102318.00;;;7.36;100.00
60319;BME280;46163;52.306;5.634;2024-01-30T06:36:37;102310.66;;;7.30;100.00
60319;BME280;46163;52.306;5.634;2024-01-30T06:39:03;102316.75;;;7.41;100.00
60319;BME280;46163;52.306;5.634;2024-01-30T06:41:29;102310.84;;;7.47;100.00
60319;BME280;46163;52.306;5.634;2024-01-30T06:43:55;102289.56;;;7.39;99.32
60319;BME280;46163;52.306;5.634;2024-01-30T06:46:20;102306.66;;;7.54;99.94
60319;BME280;46163;52.306;5.634;2024-01-30T06:48:46;102320.47;;;7.57;100.00
60319;BME280;46163;52.306;5.634;2024-01-30T06:51:11;102306.16;;;7.41;99.38
60319;BME280;46163;52.306;5.634;2024-01-30T06:53:37;102307.41;;;7.36;100.00
60319;BME280;46163;52.306;5.634;2024-01-30T06:56:03;102303.78;;;7.37;98.83
60319;BME280;46163;52.306;5.634;2024-01-30T06:58:29;102314.94;;;7.41;100.00
60319;BME280;46163;52.306;5.634;2024-01-30T07:00:55;102310.34;;;7.33;100.00
60319;BME280;46163;52.306;5.634;2024-01-30T07:03:21;102315.19;;;7.38;100.00
60319;BME280;46163;52.306;5.634;2024-01-30T07:05:47;102325.06;;;7.46;100.00
60319;BME280;46163;52.306;5.634;2024-01-30T07:08:13;102338.06;;;7.49;100.00
60319;BME280;46163;52.306;5.634;2024-01-30T07:10:39;102341.25;;;7.52;98.37
60319;BME280;46163;52.306;5.634;2024-01-30T07:13:05;102329.97;;;7.50;99.94
60319;BME280;46163;52.306;5.634;2024-01-30T07:15:31;102322.53;;;7.54;100.00
60319;BME280;46163;52.306;5.634;2024-01-30T07:17:56;102328.63;;;7.64;100.00
60319;BME280;46163;52.306;5.634;2024-01-30T07:20:22;102341.31;;;7.70;99.28
60319;BME280;46163;52.306;5.634;2024-01-30T07:22:47;102332.00;;;7.66;99.66
60319;BME280;46163;52.306;5.634;2024-01-30T07:25:13;102325.59;;;7.59;99.31
60319;BME280;46163;52.306;5.634;2024-01-30T07:27:39;102315.03;;;7.49;98.88
60319;BME280;46163;52.306;5.634;2024-01-30T07:30:05;102333.25;;;7.62;99.59
60319;BME280;46163;52.306;5.634;2024-01-30T07:32:31;102312.94;;;7.53;99.00
60319;BME280;46163;52.306;5.634;2024-01-30T07:34:57;102329.19;;;7.68;100.00
60319;BME280;46163;52.306;5.634;2024-01-30T07:37:22;102333.25;;;7.62;100.00
60319;BME280;46163;52.306;5.634;2024-01-30T07:39:47;102316.03;;;7.48;100.00
60319;BME280;46163;52.306;5.634;2024-01-30T07:42:13;102340.38;;;7.61;100.00
60319;BME280;46163;52.306;5.634;2024-01-30T07:44:38;102348.31;;;7.61;99.57
60319;BME280;46163;52.306;5.634;2024-01-30T07:47:04;102348.88;;;7.65;100.00
60319;BME280;46163;52.306;5.634;2024-01-30T07:49:30;102327.69;;;7.65;99.23
60319;BME280;46163;52.306;5.634;2024-01-30T07:51:55;102365.28;;;7.78;100.00
60319;BME280;46163;52.306;5.634;2024-01-30T07:54:21;102338.94;;;7.77;99.27
60319;BME280;46163;52.306;5.634;2024-01-30T07:56:46;102352.59;;;7.82;99.83
60319;BME280;46163;52.306;5.634;2024-01-30T07:59:12;102350.47;;;7.85;99.84
60319;BME280;46163;52.306;5.634;2024-01-30T08:01:38;102366.34;;;7.95;99.44
60319;BME280;46163;52.306;5.634;2024-01-30T08:04:03;102365.84;;;7.72;100.00
60319;BME280;46163;52.306;5.634;2024-01-30T08:06:31;102361.66;;;7.79;100.00
60319;BME280;46163;52.306;5.634;2024-01-30T08:08:57;102369.72;;;7.87;100.00
60319;BME280;46163;52.306;5.634;2024-01-30T08:11:24;102359.00;;;7.79;100.00
60319;BME280;46163;52.306;5.634;2024-01-30T08:13:54;102363.47;;;7.79;100.00
60319;BME280;46163;52.306;5.634;2024-01-30T08:16:20;102372.66;;;7.84;100.00
60319;BME280;46163;52.306;5.634;2024-01-30T08:18:45;102372.06;;;7.90;100.00
60319;BME280;46163;52.306;5.634;2024-01-30T08:21:11;102376.63;;;7.98;100.00
60319;BME280;46163;52.306;5.634;2024-01-30T08:23:38;102384.44;;;8.09;100.00
60319;BME280;46163;52.306;5.634;2024-01-30T08:26:05;102385.50;;;8.16;100.00
60319;BME280;46163;52.306;5.634;2024-01-30T08:28:31;102361.03;;;8.22;100.00
60319;BME280;46163;52.306;5.634;2024-01-30T08:30:56;102363.91;;;8.39;100.00
60319;BME280;46163;52.306;5.634;2024-01-30T08:33:22;102373.25;;;8.43;100.00
60319;BME280;46163;52.306;5.634;2024-01-30T08:35:48;102362.50;;;8.44;100.00
60319;BME280;46163;52.306;5.634;2024-01-30T08:38:13;102376.75;;;8.43;100.00
60319;BME280;46163;52.306;5.634;2024-01-30T08:40:39;102373.31;;;8.51;100.00
60319;BME280;46163;52.306;5.634;2024-01-30T08:43:04;102377.78;;;8.50;100.00
60319;BME280;46163;52.306;5.634;2024-01-30T08:45:29;102373.56;;;8.58;100.00
60319;BME280;46163;52.306;5.634;2024-01-30T08:47:56;102361.75;;;8.70;100.00
60319;BME280;46163;52.306;5.634;2024-01-30T08:50:21;102378.22;;;8.73;100.00
60319;BME280;46163;52.306;5.634;2024-01-30T08:52:46;102372.38;;;8.70;100.00
60319;BME280;46163;52.306;5.634;2024-01-30T08:55:12;102379.72;;;8.94;100.00
60319;BME280;46163;52.306;5.634;2024-01-30T08:57:37;102376.53;;;8.90;100.00
60319;BME280;46163;52.306;5.634;2024-01-30T09:00:03;102382.28;;;8.86;100.00
60319;BME280;46163;52.306;5.634;2024-01-30T09:02:31;102380.78;;;8.83;100.00
60319;BME280;46163;52.306;5.634;2024-01-30T09:04:57;102379.59;;;8.95;100.00
60319;BME280;46163;52.306;5.634;2024-01-30T09:07:22;102381.78;;;9.00;100.00
60319;BME280;46163;52.306;5.634;2024-01-30T09:09:48;102373.56;;;8.93;100.00
60319;BME280;46163;52.306;5.634;2024-01-30T09:12:14;102377.53;;;9.07;100.00
60319;BME280;46163;52.306;5.634;2024-01-30T09:14:40;102366.00;;;8.98;100.00
60319;BME280;46163;52.306;5.634;2024-01-30T09:17:06;102374.03;;;9.06;100.00
60319;BME280;46163;52.306;5.634;2024-01-30T09:19:31;102372.50;;;9.22;100.00
60319;BME280;46163;52.306;5.634;2024-01-30T09:21:57;102361.44;;;9.09;100.00
60319;BME280;46163;52.306;5.634;2024-01-30T09:24:22;102367.31;;;9.20;100.00
60319;BME280;46163;52.306;5.634;2024-01-30T09:26:48;102378.63;;;9.40;100.00
60319;BME280;46163;52.306;5.634;2024-01-30T09:29:13;102372.66;;;9.46;100.00
60319;BME280;46163;52.306;5.634;2024-01-30T09:31:39;102381.44;;;9.65;100.00
60319;BME280;46163;52.306;5.634;2024-01-30T09:34:04;102385.44;;;9.69;100.00
60319;BME280;46163;52.306;5.634;2024-01-30T09:36:31;102379.63;;;9.65;99.94
60319;BME280;46163;52.306;5.634;2024-01-30T09:38:56;102389.44;;;9.73;99.86
60319;BME280;46163;52.306;5.634;2024-01-30T09:41:23;102383.03;;;9.83;99.41
60319;BME280;46163;52.306;5.634;2024-01-30T09:43:50;102393.47;;;9.77;99.78
60319;BME280;46163;52.306;5.634;2024-01-30T09:46:17;102390.44;;;9.72;99.61
60319;BME280;46163;52.306;5.634;2024-01-30T09:48:49;102389.44;;;9.73;99.99
60319;BME280;46163;52.306;5.634;2024-01-30T09:51:15;102402.72;;;9.73;99.63
60319;BME280;46163;52.306;5.634;2024-01-30T09:53:42;102391.75;;;9.68;100.00
60319;BME280;46163;52.306;5.634;2024-01-30T09:56:09;102401.06;;;9.72;100.00
60319;BME280;46163;52.306;5.634;2024-01-30T09:58:34;102403.13;;;9.78;100.00
60319;BME280;46163;52.306;5.634;2024-01-30T10:01:00;102408.59;;;9.76;100.00
60319;BME280;46163;52.306;5.634;2024-01-30T10:03:25;102391.47;;;9.79;100.00
60319;BME280;46163;52.306;5.634;2024-01-30T10:05:52;102408.09;;;9.81;100.00
60319;BME280;46163;52.306;5.634;2024-01-30T10:08:18;102413.69;;;9.96;99.94
60319;BME280;46163;52.306;5.634;2024-01-30T10:10:48;102391.53;;;9.87;99.99
60319;BME280;46163;52.306;5.634;2024-01-30T10:13:15;102412.84;;;9.95;100.00
60319;BME280;46163;52.306;5.634;2024-01-30T10:15:41;102415.56;;;10.03;100.00
60319;BME280;46163;52.306;5.634;2024-01-30T10:18:07;102409.34;;;9.95;99.67
60319;BME280;46163;52.306;5.634;2024-01-30T10:20:34;102417.75;;;10.08;100.00
60319;BME280;46163;52.306;5.634;2024-01-30T10:22:59;102407.66;;;10.19;99.13
60319;BME280;46163;52.306;5.634;2024-01-30T10:25:25;102404.47;;;10.16;98.95
60319;BME280;46163;52.306;5.634;2024-01-30T10:27:54;102419.75;;;10.14;98.78
60319;BME280;46163;52.306;5.634;2024-01-30T10:30:24;102399.09;;;10.34;97.51
60319;BME280;46163;52.306;5.634;2024-01-30T10:32:50;102407.41;;;10.31;97.27
60319;BME280;46163;52.306;5.634;2024-01-30T10:35:17;102397.75;;;10.30;97.42
60319;BME280;46163;52.306;5.634;2024-01-30T10:37:47;102383.16;;;10.50;95.99
60319;BME280;46163;52.306;5.634;2024-01-30T10:40:14;102398.31;;;10.50;95.86
60319;BME280;46163;52.306;5.634;2024-01-30T10:42:44;102407.16;;;10.66;95.51
60319;BME280;46163;52.306;5.634;2024-01-30T10:45:12;102410.81;;;10.57;94.72
60319;BME280;46163;52.306;5.634;2024-01-30T10:47:49;102408.00;;;10.67;94.28
60319;BME280;46163;52.306;5.634;2024-01-30T10:50:15;102386.53;;;10.68;93.83
60319;BME280;46163;52.306;5.634;2024-01-30T10:52:42;102406.34;;;10.66;94.85
60319;BME280;46163;52.306;5.634;2024-01-30T10:55:08;102414.91;;;10.35;96.19
60319;BME280;46163;52.306;5.634;2024-01-30T10:57:34;102417.63;;;10.60;95.47
60319;BME280;46163;52.306;5.634;2024-01-30T11:00:09;102418.78;;;10.57;95.16
60319;BME280;46163;52.306;5.634;2024-01-30T11:02:38;102410.63;;;10.51;95.23
60319;BME280;46163;52.306;5.634;2024-01-30T11:05:05;102421.25;;;10.51;95.10
60319;BME280;46163;52.306;5.634;2024-01-30T11:07:31;102416.09;;;10.49;95.33
60319;BME280;46163;52.306;5.634;2024-01-30T11:12:29;102425.41;;;10.45;94.73
60319;BME280;46163;52.306;5.634;2024-01-30T11:15:06;102419.25;;;10.44;94.70
60319;BME280;46163;52.306;5.634;2024-01-30T11:20:20;102421.31;;;10.25;94.29
60319;BME280;46163;52.306;5.634;2024-01-30T11:22:46;102422.94;;;10.17;95.12
60319;BME280;46163;52.306;5.634;2024-01-30T11:25:18;102423.03;;;10.26;94.85
60319;BME280;46163;52.306;5.634;2024-01-30T11:27:45;102419.09;;;10.12;95.39
60319;BME280;46163;52.306;5.634;2024-01-30T11:30:21;102440.03;;;10.15;96.05
60319;BME280;46163;52.306;5.634;2024-01-30T11:33:07;102428.91;;;10.11;95.45
60319;BME280;46163;52.306;5.634;2024-01-30T11:35:37;102435.50;;;10.25;94.63
60319;BME280;46163;52.306;5.634;2024-01-30T11:38:05;102430.69;;;10.29;92.96
60319;BME280;46163;52.306;5.634;2024-01-30T11:40:32;102433.69;;;10.34;91.83
60319;BME280;46163;52.306;5.634;2024-01-30T11:43:00;102441.19;;;10.38;91.10
60319;BME280;46163;52.306;5.634;2024-01-30T11:45:28;102421.25;;;10.42;90.77
60319;BME280;46163;52.306;5.634;2024-01-30T11:47:55;102443.66;;;10.32;92.01
60319;BME280;46163;52.306;5.634;2024-01-30T11:50:21;102449.94;;;10.23;92.87
60319;BME280;46163;52.306;5.634;2024-01-30T11:52:47;102433.56;;;10.09;93.32
60319;BME280;46163;52.306;5.634;2024-01-30T11:55:14;102444.44;;;9.98;93.97
60319;BME280;46163;52.306;5.634;2024-01-30T11:57:40;102432.09;;;9.89;93.63
60319;BME280;46163;52.306;5.634;2024-01-30T12:00:13;102433.47;;;9.93;92.97
60319;BME280;46163;52.306;5.634;2024-01-30T12:02:40;102448.19;;;9.87;93.49
60319;BME280;46163;52.306;5.634;2024-01-30T12:05:06;102448.09;;;9.71;94.30
60319;BME280;46163;52.306;5.634;2024-01-30T12:07:33;102462.81;;;9.83;93.78
60319;BME280;46163;52.306;5.634;2024-01-30T12:09:59;102453.50;;;9.61;92.22
60319;BME280;46163;52.306;5.634;2024-01-30T12:12:26;102453.72;;;9.68;91.49
60319;BME280;46163;52.306;5.634;2024-01-30T12:14:51;102460.25;;;9.74;91.90
60319;BME280;46163;52.306;5.634;2024-01-30T12:17:32;102459.97;;;9.59;91.96
60319;BME280;46163;52.306;5.634;2024-01-30T12:20:11;102469.63;;;9.60;90.81
60319;BME280;46163;52.306;5.634;2024-01-30T12:22:38;102468.31;;;9.64;89.82
60319;BME280;46163;52.306;5.634;2024-01-30T12:25:14;102460.75;;;9.51;89.96
60319;BME280;46163;52.306;5.634;2024-01-30T12:27:42;102477.38;;;9.53;89.05
60319;BME280;46163;52.306;5.634;2024-01-30T12:30:12;102496.97;;;9.34;89.45
60319;BME280;46163;52.306;5.634;2024-01-30T12:32:42;102492.72;;;9.24;89.74
60319;BME280;46163;52.306;5.634;2024-01-30T12:35:12;102470.16;;;9.10;91.23
60319;BME280;46163;52.306;5.634;2024-01-30T12:37:38;102493.00;;;9.03;91.29
60319;BME280;46163;52.306;5.634;2024-01-30T12:40:04;102497.78;;;8.99;92.55
60319;BME280;46163;52.306;5.634;2024-01-30T12:42:31;102502.78;;;9.02;91.65
60319;BME280;46163;52.306;5.634;2024-01-30T12:44:57;102506.13;;;8.87;93.29
60319;BME280;46163;52.306;5.634;2024-01-30T12:47:24;102493.75;;;8.77;93.11
60319;BME280;46163;52.306;5.634;2024-01-30T12:49:49;102511.50;;;8.67;93.21
60319;BME280;46163;52.306;5.634;2024-01-30T12:52:18;102507.69;;;8.80;93.33